Arcola, Louisiana
Current Conditions -  °F | °C
As of 2:15 PM on Sunday 23 Nov 2014 (Local Time) from KHDC Reporting Station
Broken Clouds Broken Clouds  
Wind Chill: 24°   Ceiling: 4100
Heat Index: 24°   Visibility: 10mi
Dew Point: 14°   Wind: 16mph
Humidity: 53%   Direction: 240°WSW
Pressure: 29.62"   Gusts: 25mph
Location:  30.7896°N, 90.5314°W
Report Text: KHDC 232015Z AUTO 24014G22KT 10SM SCT036 BKN041 24/14 A2962 RMK AO2
Loading
Personal Weather Stations






























Interactive Weather Map New forecast layout! Learn more

10-Day Weather Forecast

Advertisements
Track Severe Weather on mobile